Time;durP1;ratioP1;P1;durP2;ratioP2;P2;SDS_P1;SDS_P2;PMS_P1;PMS_P2;Temp;Humidity;BMP_temperature;BMP_pressure;BME280_temperature;BME280_humidity;BME280_pressure;Samples;Min_cycle;Max_cycle;Signal;HPM_P1;HPM_P2
2022/03/05 00:00:44;;;;;;;30.52;19.60;;;4.70;99.90;;;4.98;62.65;101856.66;5095379;28;20044;-66
2022/03/05 00:03:13;;;;;;;30.50;19.53;;;4.80;99.90;;;4.54;62.97;101817.56;5094858;28;20036;-68
2022/03/05 00:05:42;;;;;;;26.77;17.90;;;4.80;99.90;;;4.66;63.44;101832.81;5095240;28;20043;-67
2022/03/05 00:08:11;;;;;;;30.87;19.17;;;4.70;99.90;;;4.88;63.45;101859.81;5095135;28;20071;-70
2022/03/05 00:10:40;;;;;;;29.67;18.97;;;4.70;99.90;;;5.09;63.25;101863.16;5094783;28;20052;-70
2022/03/05 00:13:10;;;;;;;29.00;19.33;;;4.90;99.90;;;5.10;62.63;101874.53;5095120;28;20052;-69
2022/03/05 00:15:38;;;;;;;32.88;19.67;;;4.90;99.90;;;5.08;62.65;101868.34;5095210;28;20040;-70
2022/03/05 00:18:07;;;;;;;34.10;20.37;;;4.90;99.90;;;4.95;62.93;101863.53;5095052;28;20036;-70
2022/03/05 00:20:35;;;;;;;30.80;19.87;;;4.90;99.90;;;4.78;62.86;101825.41;5094708;28;20508;-70
2022/03/05 00:23:04;;;;;;;33.23;20.30;;;4.90;99.90;;;4.96;62.65;101833.84;5094356;28;20044;-70
2022/03/05 00:25:32;;;;;;;32.50;20.00;;;5.00;99.90;;;5.13;62.33;101878.16;5076764;28;20159;-70
2022/03/05 00:28:01;;;;;;;33.00;21.50;;;5.00;99.90;;;4.77;63.04;101802.63;5094509;28;20069;-70
2022/03/05 00:30:31;;;;;;;33.57;20.13;;;5.00;99.90;;;4.84;63.10;101816.00;5094727;28;20043;-69
2022/03/05 00:33:00;;;;;;;31.33;19.48;;;5.00;99.90;;;5.10;62.99;101867.59;5094768;28;20047;-70
2022/03/05 00:35:30;;;;;;;34.23;20.43;;;5.00;99.90;;;5.15;62.88;101859.88;5094743;28;20079;-70
2022/03/05 00:37:58;;;;;;;32.30;19.30;;;5.00;99.90;;;5.36;62.48;101873.69;5094413;28;20497;-70
2022/03/05 00:40:27;;;;;;;34.00;19.83;;;5.20;99.90;;;5.46;62.45;101879.25;5094625;28;20060;-69
2022/03/05 00:42:55;;;;;;;36.17;21.13;;;5.30;99.90;;;5.46;62.39;101873.13;5094573;28;20505;-69
2022/03/05 00:45:23;;;;;;;31.43;20.63;;;5.30;99.90;;;5.43;62.18;101844.19;5094295;28;20558;-70
2022/03/05 00:47:54;;;;;;;31.70;20.73;;;5.40;99.90;;;5.50;61.90;101875.00;5094083;28;20055;-69
2022/03/05 00:50:22;;;;;;;37.05;22.27;;;5.40;99.90;;;5.25;62.70;101880.28;5094155;28;20493;-70
2022/03/05 00:52:50;;;;;;;32.70;21.37;;;5.30;99.90;;;5.17;63.49;101879.13;5094323;28;20128;-70
2022/03/05 00:55:19;;;;;;;35.60;21.33;;;5.10;99.90;;;5.20;62.95;101881.88;5094269;28;20051;-69
2022/03/05 00:57:47;;;;;;;34.30;21.27;;;5.10;99.90;;;5.40;63.30;101883.44;5093965;28;20087;-70
2022/03/05 01:00:16;;;;;;;35.87;22.57;;;5.20;99.90;;;5.39;62.71;101879.03;5093904;28;20474;-69
2022/03/05 01:02:45;;;;;;;35.23;21.70;;;5.30;99.90;;;5.47;62.80;101893.28;5093863;28;20127;-70
2022/03/05 01:05:15;;;;;;;36.23;21.93;;;5.30;99.90;;;5.39;62.55;101872.06;5094100;28;20060;-69
2022/03/05 01:07:44;;;;;;;34.22;21.60;;;5.40;99.90;;;5.31;63.18;101880.50;5094281;28;20139;-70
2022/03/05 01:10:13;;;;;;;34.40;22.03;;;5.30;99.90;;;5.53;63.21;101896.09;5075639;28;20139;-70
2022/03/05 01:12:41;;;;;;;35.60;22.23;;;5.30;99.90;;;5.61;62.89;101899.88;5093793;28;20048;-70
2022/03/05 01:15:10;;;;;;;36.73;21.77;;;5.40;99.90;;;5.75;62.67;101895.94;5093895;28;20099;-70
2022/03/05 01:17:38;;;;;;;34.27;21.47;;;5.50;99.90;;;5.83;62.57;101897.09;5093943;28;20047;-70
2022/03/05 01:20:08;;;;;;;36.50;21.23;;;5.60;99.90;;;5.78;62.01;101874.16;5093913;28;20130;-70
2022/03/05 01:22:38;;;;;;;32.53;20.70;;;5.70;99.90;;;6.00;62.12;101893.25;5093761;28;20093;-70
2022/03/05 01:25:08;;;;;;;38.08;22.35;;;5.80;99.90;;;6.07;61.59;101896.97;5093487;28;20045;-70
2022/03/05 01:27:36;;;;;;;36.43;22.13;;;5.90;99.90;;;5.99;61.76;101887.97;5093462;28;20039;-70
2022/03/05 01:30:06;;;;;;;39.03;22.47;;;5.90;99.90;;;5.94;61.86;101886.94;5093497;28;20071;-71
2022/03/05 01:32:34;;;;;;;35.03;22.48;;;5.80;99.90;;;5.58;62.41;101883.13;5093917;28;20370;-70
2022/03/05 01:35:02;;;;;;;40.10;23.63;;;5.60;99.90;;;5.61;63.40;101897.25;5092990;28;20043;-70
2022/03/05 01:37:31;;;;;;;41.17;23.17;;;5.50;99.90;;;5.71;63.09;101896.69;5093839;28;20045;-70
2022/03/05 01:40:01;;;;;;;39.23;23.77;;;5.50;99.90;;;5.82;63.11;101904.91;5093226;28;20065;-70
2022/03/05 01:42:30;;;;;;;42.47;24.00;;;5.60;99.90;;;5.80;63.15;101898.72;5093495;28;20051;-70
2022/03/05 01:44:59;;;;;;;38.43;24.20;;;5.60;99.90;;;5.76;63.09;101895.09;5093316;28;20560;-71
2022/03/05 01:47:27;;;;;;;41.53;24.53;;;5.60;99.90;;;5.69;63.40;101894.88;5093423;28;20044;-70
2022/03/05 01:49:56;;;;;;;39.67;25.07;;;5.50;99.90;;;5.60;63.32;101890.19;5093506;28;20040;-70
2022/03/05 01:52:24;;;;;;;42.60;26.07;;;5.50;99.90;;;5.66;63.53;101893.03;5075146;28;20097;-70
2022/03/05 01:54:52;;;;;;;40.77;24.93;;;5.50;99.90;;;5.72;63.70;101892.31;5075270;28;20047;-70
2022/03/05 01:57:22;;;;;;;41.40;24.43;;;5.50;99.90;;;5.77;63.43;101896.88;5075297;28;20036;-70
2022/03/05 01:59:51;;;;;;;44.67;26.20;;;5.60;99.90;;;5.71;63.61;101893.19;5074976;28;20544;-70
2022/03/05 02:02:19;;;;;;;44.27;25.87;;;5.60;99.90;;;5.55;63.81;101888.28;5074987;28;20056;-70
2022/03/05 02:04:48;;;;;;;43.53;25.53;;;5.50;99.90;;;5.35;64.38;101879.75;5092884;28;20047;-70
2022/03/05 02:07:17;;;;;;;44.33;24.93;;;5.30;99.90;;;5.11;65.57;101873.72;5092797;28;20044;-70
2022/03/05 02:09:45;;;;;;;46.83;26.77;;;5.10;99.90;;;4.61;66.29;101847.50;5092907;28;20134;-70
2022/03/05 02:12:13;;;;;;;46.20;27.80;;;4.80;99.90;;;4.65;67.33;101884.31;5093300;28;20111;-70
2022/03/05 02:14:43;;;;;;;49.03;28.13;;;4.60;99.90;;;4.75;67.28;101907.41;5093004;28;20054;-70
2022/03/05 02:17:12;;;;;;;44.38;26.92;;;4.60;99.90;;;4.93;66.91;101874.00;5092872;28;20393;-70
2022/03/05 02:19:40;;;;;;;48.83;27.27;;;4.70;99.90;;;4.92;67.26;101880.06;5074854;28;20056;-70
2022/03/05 02:22:11;;;;;;;49.77;28.17;;;4.80;99.90;;;4.96;67.28;101896.78;5092551;28;20062;-70
2022/03/05 02:24:39;;;;;;;47.90;27.85;;;4.80;99.90;;;4.91;67.44;101907.13;5093082;28;20048;-70
2022/03/05 02:27:10;;;;;;;51.03;28.50;;;4.80;99.90;;;4.90;67.79;101878.22;5092641;28;20576;-70
2022/03/05 02:29:39;;;;;;;47.10;28.17;;;4.80;99.90;;;4.44;67.43;101792.78;5074780;28;20048;-70
2022/03/05 02:32:08;;;;;;;50.73;28.70;;;4.80;99.90;;;5.07;67.15;101877.06;5074791;28;20159;-71
2022/03/05 02:34:36;;;;;;;50.13;26.97;;;4.90;99.90;;;4.92;67.59;101876.53;5092850;28;20040;-69
2022/03/05 02:37:06;;;;;;;50.23;27.87;;;4.80;99.90;;;4.85;67.11;101870.22;5092623;28;20117;-70
2022/03/05 02:39:36;;;;;;;48.47;27.50;;;4.80;99.90;;;4.60;67.89;101846.59;5092744;28;20052;-70
2022/03/05 02:42:06;;;;;;;53.33;30.42;;;4.70;99.90;;;4.48;68.34;101878.50;5092750;28;20040;-70
2022/03/05 02:44:34;;;;;;;50.33;29.27;;;4.40;99.90;;;4.23;69.17;101852.25;5092589;28;20048;-70
2022/03/05 02:47:04;;;;;;;50.47;29.33;;;4.30;99.90;;;4.17;69.62;101869.44;5096733;28;20097;-70
2022/03/05 02:49:32;;;;;;;50.03;27.67;;;4.10;99.90;;;4.05;69.93;101876.84;5096550;28;20476;-70
2022/03/05 02:52:00;;;;;;;54.43;29.30;;;4.00;99.90;;;3.92;70.28;101878.13;5096617;28;20532;-70
2022/03/05 02:54:29;;;;;;;54.83;30.03;;;3.90;99.90;;;3.91;70.98;101881.53;5096449;28;20048;-70
2022/03/05 02:56:59;;;;;;;55.97;29.00;;;3.80;99.90;;;3.76;71.11;101870.50;5078549;28;20445;-70
2022/03/05 02:59:27;;;;;;;53.10;28.15;;;3.80;99.90;;;3.26;72.70;101865.88;5096300;28;20035;-69
2022/03/05 03:01:56;;;;;;;57.77;29.37;;;3.40;99.90;;;3.20;73.16;101862.09;5096271;28;20094;-71
2022/03/05 03:04:24;;;;;;;55.57;29.97;;;3.20;99.90;;;3.27;73.70;101864.16;5096069;28;20490;-70
2022/03/05 03:06:53;;;;;;;55.97;30.93;;;3.20;99.90;;;3.30;73.87;101862.56;5096156;28;20068;-70
2022/03/05 03:09:21;;;;;;;56.30;30.30;;;3.30;99.90;;;3.33;73.84;101852.22;5096134;28;20135;-71
2022/03/05 03:11:50;;;;;;;59.87;31.60;;;3.20;99.90;;;3.42;73.68;101859.53;5096278;28;20097;-70
2022/03/05 03:14:20;;;;;;;56.60;30.43;;;3.30;99.90;;;3.43;73.61;101849.13;5095945;28;20071;-70
2022/03/05 03:16:48;;;;;;;60.42;30.48;;;3.40;99.90;;;3.39;73.62;101851.56;5096097;28;20040;-70
2022/03/05 03:19:16;;;;;;;55.40;29.80;;;3.40;99.90;;;3.15;74.43;101847.97;5095892;28;20044;-71
2022/03/05 03:21:45;;;;;;;57.20;29.87;;;3.20;99.90;;;2.82;75.29;101823.06;5095941;28;20043;-70
2022/03/05 03:24:13;;;;;;;59.27;31.20;;;3.00;99.90;;;3.00;75.37;101855.19;5095693;28;20138;-70
2022/03/05 03:26:41;;;;;;;60.77;32.43;;;3.00;99.90;;;3.04;75.32;101824.00;5095823;28;20116;-70
2022/03/05 03:29:10;;;;;;;57.30;30.57;;;3.10;99.90;;;3.39;74.68;101869.88;5095712;28;20553;-70
2022/03/05 03:31:40;;;;;;;58.07;30.60;;;3.20;99.90;;;3.47;74.13;101839.69;5095713;28;20126;-70
2022/03/05 03:34:08;;;;;;;56.70;31.13;;;3.40;99.90;;;3.41;74.22;101858.66;5077448;28;20458;-70
2022/03/05 03:36:37;;;;;;;58.50;30.90;;;3.40;99.90;;;3.43;73.80;101856.97;5095888;28;20478;-70
2022/03/05 03:39:05;;;;;;;56.40;31.77;;;3.40;99.90;;;3.52;73.72;101865.19;5095490;28;20044;-70
2022/03/05 03:41:34;;;;;;;58.70;31.17;;;3.50;99.90;;;3.48;73.88;101854.56;5077556;28;20086;-70
2022/03/05 03:44:07;;;;;;;56.87;31.33;;;3.40;99.90;;;3.64;73.49;101864.78;5095399;28;20044;-70
2022/03/05 03:46:35;;;;;;;54.37;28.97;;;3.50;99.90;;;3.86;73.30;101851.72;5095398;28;20516;-70
2022/03/05 03:49:07;;;;;;;56.83;31.45;;;3.70;99.90;;;3.69;72.77;101858.03;5095507;28;20048;-70
2022/03/05 03:51:35;;;;;;;55.60;30.25;;;3.70;99.90;;;3.74;72.93;101855.56;5095595;28;20509;-70
2022/03/05 03:54:04;;;;;;;57.53;30.03;;;3.60;99.90;;;3.76;72.46;101849.56;5095433;28;20043;-70
2022/03/05 03:56:32;;;;;;;54.43;30.60;;;3.70;99.90;;;3.86;72.78;101846.47;5095243;28;20436;-70
2022/03/05 03:59:00;;;;;;;52.63;30.90;;;3.70;99.90;;;3.68;72.97;101845.75;5095463;28;20136;-70
2022/03/05 04:01:29;;;;;;;56.87;31.37;;;3.60;99.90;;;3.66;72.90;101836.97;5095367;28;20040;-70
2022/03/05 04:03:57;;;;;;;56.93;31.07;;;3.60;99.90;;;3.67;72.91;101838.75;5095432;28;20051;-71
2022/03/05 04:08:41;;;;;;;59.67;31.80;;;3.50;99.90;;;3.72;72.88;101849.41;5095068;28;20043;-70
2022/03/05 04:09:15;;;;;;;56.33;31.05;;;3.60;99.90;;;3.70;72.64;101849.31;5094827;28;20889;-70
2022/03/05 04:11:44;;;;;;;56.77;30.60;;;3.60;99.90;;;3.64;72.73;101849.09;5095188;28;20555;-70
2022/03/05 04:14:13;;;;;;;58.40;32.65;;;3.60;99.90;;;3.71;72.70;101850.22;5095409;28;20036;-70
2022/03/05 04:16:42;;;;;;;54.10;29.07;;;3.60;99.90;;;3.63;72.45;101845.59;5095135;28;20084;-70
2022/03/05 04:19:11;;;;;;;54.77;30.27;;;3.50;99.90;;;3.55;72.68;101849.63;5095162;28;20048;-70
2022/03/05 04:21:41;;;;;;;52.23;29.00;;;3.50;99.90;;;3.26;73.25;101817.94;5094822;28;20063;-70
2022/03/05 04:24:09;;;;;;;58.05;32.05;;;3.40;99.90;;;3.24;73.53;101841.41;5094734;28;20036;-70
2022/03/05 04:26:38;;;;;;;56.17;30.83;;;3.30;99.90;;;3.22;73.85;101844.75;5094601;28;20078;-70
2022/03/05 04:29:06;;;;;;;60.80;32.57;;;3.10;99.90;;;3.15;73.89;101842.75;5094612;28;20489;-70
2022/03/05 04:31:37;;;;;;;59.53;32.10;;;3.10;99.90;;;2.80;74.48;101820.41;5094779;28;20040;-70
2022/03/05 04:34:06;;;;;;;64.47;32.40;;;3.00;99.90;;;2.97;74.66;101855.03;5094751;28;20047;-70
2022/03/05 04:36:34;;;;;;;60.33;31.77;;;2.90;99.90;;;3.00;74.95;101849.97;5094368;28;20562;-70
2022/03/05 04:39:04;;;;;;;56.60;30.20;;;2.90;99.90;;;3.19;74.45;101856.00;5094652;28;20061;-70
2022/03/05 04:41:32;;;;;;;56.28;31.00;;;3.00;99.90;;;3.33;74.52;101859.19;5094720;28;20125;-70
2022/03/05 04:44:01;;;;;;;58.47;31.57;;;3.20;99.90;;;3.30;74.00;101864.28;5094157;28;20051;-70
2022/03/05 04:46:30;;;;;;;60.10;31.60;;;3.20;99.90;;;3.27;73.92;101866.78;5094409;28;20055;-70
2022/03/05 04:48:59;;;;;;;57.28;31.60;;;3.20;99.90;;;3.09;73.99;101866.00;5094437;28;20117;-70
2022/03/05 04:51:28;;;;;;;58.73;31.27;;;3.10;99.90;;;3.00;74.53;101866.50;5094094;28;20101;-70
2022/03/05 04:53:56;;;;;;;64.00;32.60;;;3.00;99.90;;;3.01;74.73;101857.84;5094055;28;20089;-70
2022/03/05 04:56:26;;;;;;;55.77;30.57;;;2.90;99.90;;;2.23;74.55;101701.34;5075978;28;20097;-70
2022/03/05 04:58:55;;;;;;;57.40;31.20;;;3.10;99.90;;;1.18;74.03;101522.94;5093976;28;20047;-70
2022/03/05 05:01:24;;;;;;;58.93;30.83;;;3.10;99.90;;;2.95;74.18;101838.41;5094168;28;20052;-70
2022/03/05 05:03:52;;;;;;;59.20;30.83;;;3.10;99.90;;;3.23;74.47;101864.88;5094098;28;20071;-70
2022/03/05 05:06:21;;;;;;;56.63;31.80;;;3.10;99.90;;;3.08;74.28;101870.34;5094133;28;20097;-70
2022/03/05 05:08:49;;;;;;;56.03;30.40;;;3.00;99.90;;;2.95;74.27;101835.78;5075064;28;20159;-70
2022/03/05 05:11:18;;;;;;;54.57;30.67;;;3.00;99.90;;;3.04;74.45;101865.81;5094097;28;20538;-70
2022/03/05 05:13:47;;;;;;;60.20;32.43;;;3.00;99.90;;;2.77;74.73;101830.69;5093857;28;20485;-70
2022/03/05 05:16:16;;;;;;;58.28;30.17;;;2.90;99.90;;;3.01;74.80;101862.19;5093692;28;20044;-70
2022/03/05 05:19:24;;;;;;;57.53;30.77;;;2.90;99.90;;;2.98;74.93;101868.16;5093649;28;20070;-70
2022/03/05 05:21:33;;;;;;;62.73;31.47;;;2.90;99.90;;;3.17;74.78;101864.63;5093405;28;20044;-71
2022/03/05 05:24:02;;;;;;;58.03;29.83;;;3.00;99.90;;;3.34;74.14;101864.47;5093457;28;20064;-70
2022/03/05 05:26:30;;;;;;;56.77;30.63;;;3.20;99.90;;;3.44;73.90;101865.72;5093766;28;20044;-70
2022/03/05 05:29:00;;;;;;;57.10;31.07;;;3.30;99.90;;;3.51;73.45;101863.41;5093703;28;20048;-70
2022/03/05 05:31:28;;;;;;;56.58;30.23;;;3.40;99.90;;;3.48;72.69;101870.25;5093395;28;20051;-69
2022/03/05 05:33:57;;;;;;;54.57;30.30;;;3.40;99.90;;;3.47;73.15;101869.34;5093451;28;20048;-70
2022/03/05 05:36:25;;;;;;;60.30;31.47;;;3.40;99.90;;;3.54;72.77;101875.72;5093316;28;20044;-70
2022/03/05 05:38:53;;;;;;;59.30;31.80;;;3.40;99.90;;;3.64;72.73;101870.91;5093539;28;20131;-70
2022/03/05 05:41:22;;;;;;;58.83;31.77;;;3.50;99.90;;;3.61;72.38;101880.38;5093189;28;20093;-69
2022/03/05 05:43:50;;;;;;;55.43;32.03;;;3.50;99.90;;;3.70;72.06;101872.88;5093095;28;20071;-70
2022/03/05 05:46:20;;;;;;;58.50;31.33;;;3.60;99.90;;;3.59;71.52;101868.94;5093075;28;20047;-70
2022/03/05 05:48:55;;;;;;;56.73;31.33;;;3.50;99.90;;;3.73;71.73;101875.63;5093249;28;20472;-70
2022/03/05 05:51:24;;;;;;;56.20;31.27;;;3.60;99.90;;;3.78;71.37;101878.41;5093058;28;20169;-70
2022/03/05 05:53:57;;;;;;;54.47;30.03;;;3.70;99.90;;;3.83;71.22;101889.94;5093384;28;20048;-70
2022/03/05 05:56:26;;;;;;;55.85;30.50;;;3.70;99.90;;;3.87;70.85;101884.88;5093018;28;20043;-70
2022/03/05 05:58:54;;;;;;;54.53;30.83;;;3.70;99.90;;;3.78;71.06;101873.16;5093190;28;20036;-70
2022/03/05 06:01:25;;;;;;;55.17;30.17;;;3.80;99.90;;;3.91;70.61;101889.41;5093158;28;20539;-70
2022/03/05 06:03:54;;;;;;;;;;;3.70;99.90;;;3.63;70.71;101852.53;5093459;28;20039;-70
2022/03/05 06:06:23;;;;;;;53.33;28.87;;;3.80;99.90;;;3.86;70.56;101885.72;5092827;28;20031;-70
2022/03/05 06:08:52;;;;;;;51.63;29.20;;;3.70;99.90;;;3.74;70.68;101881.72;5093301;28;20048;-70
2022/03/05 06:11:20;;;;;;;58.73;29.93;;;3.70;99.90;;;3.33;71.30;101883.59;5092506;28;20135;-70
2022/03/05 06:13:48;;;;;;;57.03;30.63;;;3.40;99.90;;;3.34;72.10;101888.00;5093017;28;20135;-70
2022/03/05 06:16:17;;;;;;;57.23;30.53;;;3.20;99.90;;;3.43;72.11;101885.75;5092791;28;20040;-70
2022/03/05 06:18:47;;;;;;;54.20;30.47;;;3.30;99.90;;;2.87;71.95;101851.16;5093010;28;20135;-70
2022/03/05 06:21:15;;;;;;;58.22;30.25;;;3.10;99.90;;;3.19;72.56;101894.31;5074646;28;20056;-70
2022/03/05 06:23:44;;;;;;;56.80;30.60;;;3.10;99.90;;;3.22;72.42;101887.50;5092554;28;20123;-70
2022/03/05 06:26:12;;;;;;;51.30;28.87;;;3.10;99.90;;;3.31;72.41;101894.84;5092506;28;20072;-70
2022/03/05 06:28:41;;;;;;;53.70;30.33;;;3.20;99.90;;;3.40;72.36;101900.44;5092328;28;20123;-70
2022/03/05 06:31:09;;;;;;;54.20;29.73;;;3.20;99.90;;;3.45;72.46;101902.41;5092622;28;20530;-70
2022/03/05 06:33:38;;;;;;;75.70;31.07;;;3.30;99.90;;;3.48;71.87;101906.88;5092615;28;20485;-70
2022/03/05 06:36:08;;;;;;;58.23;30.97;;;3.30;99.90;;;3.57;71.70;101917.69;5092425;28;20409;-70
2022/03/05 06:38:36;;;;;;;54.42;30.05;;;3.40;99.90;;;3.62;71.56;101913.53;5092506;28;20497;-70
2022/03/05 06:41:04;;;;;;;54.20;29.40;;;3.50;99.90;;;3.77;71.75;101910.63;5092483;28;20122;-70
2022/03/05 06:43:33;;;;;;;58.33;31.43;;;3.60;99.90;;;3.84;71.52;101913.56;5092686;28;20482;-71
2022/03/05 06:46:01;;;;;;;55.07;30.90;;;3.70;99.90;;;4.10;70.74;101919.81;5092785;28;20040;-71
2022/03/05 06:48:30;;;;;;;57.43;30.40;;;3.90;99.90;;;4.29;69.75;101907.47;5092465;28;20040;-71
2022/03/05 06:50:58;;;;;;;52.87;30.30;;;4.10;99.90;;;4.31;69.10;101884.84;5092535;28;20082;-70
2022/03/05 06:53:28;;;;;;;51.53;29.07;;;4.20;99.90;;;4.47;68.75;101910.75;5092361;28;20109;-71
2022/03/05 06:55:57;;;;;;;54.97;30.65;;;4.30;99.90;;;4.40;68.26;101908.75;5074491;28;20447;-71
2022/03/05 06:58:25;;;;;;;52.67;30.47;;;4.30;99.90;;;4.31;68.48;101911.03;5092278;28;20513;-70
2022/03/05 07:00:54;;;;;;;53.87;28.83;;;4.30;99.90;;;4.32;68.22;101889.25;5092668;28;20036;-70
2022/03/05 07:03:23;;;;;;;52.17;29.97;;;4.30;99.90;;;4.64;67.65;101910.47;5092415;28;20047;-71
2022/03/05 07:05:51;;;;;;;56.77;30.17;;;4.50;99.90;;;4.78;67.67;101914.50;5092408;28;20040;-70
2022/03/05 07:08:20;;;;;;;53.43;29.63;;;4.70;99.90;;;4.88;67.11;101916.59;5092277;28;20044;-70
2022/03/05 07:10:49;;;;;;;54.60;30.23;;;4.70;99.90;;;4.83;66.88;101905.94;5092020;28;20142;-71
2022/03/05 07:13:18;;;;;;;54.83;29.35;;;4.80;99.90;;;4.78;66.50;101896.16;5092282;28;20044;-71
2022/03/05 07:15:47;;;;;;;55.33;31.03;;;4.80;99.90;;;4.94;67.05;101929.91;5092074;28;20130;-70
2022/03/05 07:18:15;;;;;;;53.30;30.47;;;4.80;99.90;;;4.81;67.62;101930.31;5092387;28;20408;-70
2022/03/05 07:20:44;;;;;;;56.10;30.00;;;4.70;99.90;;;4.83;67.17;101934.78;5074189;28;20109;-71
2022/03/05 07:23:12;;;;;;;54.03;31.83;;;4.80;99.90;;;4.52;67.07;101931.88;5092074;28;20044;-70
2022/03/05 07:25:41;;;;;;;56.03;31.43;;;4.60;99.90;;;4.27;67.73;101939.66;5092320;28;20446;-70
2022/03/05 07:28:12;;;;;;;59.30;32.13;;;4.30;99.90;;;3.91;69.63;101943.47;5092265;28;20382;-70
2022/03/05 07:30:42;;;;;;;53.93;29.57;;;3.90;99.90;;;4.45;69.60;101946.47;5092093;28;20098;-71
2022/03/05 07:33:14;;;;;;;61.13;32.87;;;4.20;99.90;;;4.80;68.30;101945.13;5094168;28;20111;-69
2022/03/05 07:35:43;;;;;;;57.17;32.00;;;4.60;99.90;;;4.89;67.99;101960.31;5095582;28;20452;-65
2022/03/05 07:38:11;;;;;;;59.10;30.80;;;4.80;99.90;;;5.18;66.50;101954.38;5095728;28;20052;-67
2022/03/05 07:40:40;;;;;;;54.70;29.93;;;5.10;99.90;;;5.62;66.40;101958.47;5095661;28;20407;-66
2022/03/05 07:43:09;;;;;;;60.07;33.23;;;5.40;99.90;;;5.92;64.51;101960.38;5095595;28;20113;-66
2022/03/05 07:45:38;;;;;;;57.65;31.38;;;5.80;99.90;;;5.42;66.16;101960.44;5095224;28;20085;-67
2022/03/05 07:48:06;;;;;;;56.77;31.23;;;5.40;99.90;;;5.98;64.76;101959.72;5095325;28;20040;-68
2022/03/05 07:50:35;;;;;;;57.38;32.55;;;5.70;99.90;;;5.50;65.85;101961.59;5095230;28;20050;-67
2022/03/05 07:53:04;;;;;;;59.50;31.57;;;5.40;99.90;;;5.07;65.74;101955.72;5095550;28;20040;-68
2022/03/05 07:55:32;;;;;;;58.10;31.43;;;5.20;99.90;;;5.16;66.65;101958.66;5095429;28;20409;-69
2022/03/05 07:58:00;;;;;;;58.57;32.60;;;5.10;99.90;;;4.50;67.13;101963.28;5077184;28;20036;-68
2022/03/05 08:00:30;;;;;;;58.90;32.47;;;4.60;99.90;;;5.44;67.21;101969.25;5095264;28;20378;-68
2022/03/05 08:02:59;;;;;;;60.15;33.08;;;5.00;99.90;;;5.85;65.18;101966.28;5095191;28;20040;-68
2022/03/05 08:05:28;;;;;;;61.05;31.38;;;5.60;99.90;;;5.35;65.04;101963.69;5094792;28;20036;-66
2022/03/05 08:07:56;;;;;;;55.90;33.43;;;5.40;99.90;;;5.00;67.23;101972.97;5095111;28;20489;-67
2022/03/05 08:10:25;;;;;;;57.60;32.27;;;4.90;99.90;;;5.72;66.96;101966.72;5094451;28;20071;-69
2022/03/05 08:12:53;;;;;;;56.17;31.38;;;5.40;99.90;;;6.28;65.16;101987.81;5094924;28;20044;-70
2022/03/05 08:15:22;;;;;;;65.00;33.40;;;5.90;99.90;;;5.85;63.36;101987.31;5094935;28;20428;-68
2022/03/05 08:17:54;;;;;;;61.15;33.38;;;5.90;99.90;;;5.18;66.65;101985.84;5094871;28;20040;-69
2022/03/05 08:20:25;;;;;;;65.53;33.10;;;5.20;99.90;;;5.80;66.59;101982.72;5094898;28;20074;-67
2022/03/05 08:22:54;;;;;;;59.90;33.75;;;5.40;99.90;;;5.70;64.42;101985.88;5094721;28;20073;-69
2022/03/05 08:25:23;;;;;;;64.55;33.55;;;5.60;99.90;;;5.79;64.18;101984.44;5094876;28;20040;-68
2022/03/05 08:27:52;;;;;;;66.38;34.88;;;5.70;99.90;;;6.41;64.45;101991.69;5094532;28;20048;-71
2022/03/05 08:30:21;;;;;;;61.40;33.30;;;6.00;99.90;;;5.76;63.49;101996.56;5094526;28;20077;-68
2022/03/05 08:32:50;;;;;;;61.00;35.20;;;5.90;99.90;;;6.63;64.16;101990.59;5094684;28;20047;-70
2022/03/05 08:35:21;;;;;;;57.83;33.80;;;6.20;99.90;;;7.35;62.24;101989.13;5094665;28;20462;-69
2022/03/05 08:37:49;;;;;;;57.25;31.50;;;6.90;99.90;;;7.49;61.66;102001.81;5094486;28;20040;-68
2022/03/05 08:40:20;;;;;;;62.17;33.47;;;7.20;99.90;;;7.18;61.37;102004.50;5094510;28;20040;-66
2022/03/05 08:42:49;;;;;;;59.50;32.70;;;7.00;99.90;;;8.09;60.53;102032.31;5094670;28;20044;-70
2022/03/05 08:45:18;;;;;;;56.50;32.70;;;7.70;99.90;;;8.13;59.52;102001.66;5094240;28;20151;-66
2022/03/05 08:47:47;;;;;;;63.03;33.20;;;7.80;99.90;;;7.78;58.44;101992.91;5094353;28;20044;-69
2022/03/05 08:50:16;;;;;;;61.38;33.15;;;7.80;99.90;;;7.76;58.37;101991.09;5094091;28;20569;-70
2022/03/05 08:52:45;;;;;;;54.47;31.85;;;7.70;99.90;;;6.96;60.89;101981.06;5094008;28;20458;-70
2022/03/05 08:55:16;;;;;;;59.97;32.27;;;6.90;99.90;;;6.45;60.65;101977.81;5094434;28;20068;-70
2022/03/05 08:57:45;;;;;;;57.28;33.88;;;6.80;99.90;;;6.45;62.96;101984.78;5094000;28;20286;-70
2022/03/05 09:00:17;;;;;;;59.70;32.50;;;6.20;99.90;;;7.37;61.51;101969.91;5094028;28;20119;-70
2022/03/05 09:02:46;;;;;;;63.13;33.17;;;7.00;99.90;;;7.87;58.84;101987.88;5093971;28;20134;-69
2022/03/05 09:05:15;;;;;;;64.88;33.95;;;7.50;99.90;;;7.28;59.61;101978.44;5093904;28;20086;-67
2022/03/05 09:07:45;;;;;;;58.72;33.05;;;7.30;99.90;;;7.99;60.91;101982.88;5093940;28;20064;-68
2022/03/05 09:10:14;;;;;;;65.00;34.75;;;7.60;99.90;;;7.64;58.53;101978.53;5093889;28;20043;-68
2022/03/05 09:12:43;;;;;;;63.50;33.17;;;7.70;99.90;;;7.69;59.00;101982.16;5094030;28;20050;-68
2022/03/05 09:15:12;;;;;;;57.53;33.75;;;7.60;99.90;;;8.13;59.50;101975.31;5093377;28;20040;-69
2022/03/05 09:17:40;;;;;;;55.95;31.60;;;7.80;99.90;;;9.00;57.59;101986.94;5093487;28;20438;-71
2022/03/05 09:20:11;;;;;;;58.35;31.70;;;8.50;99.90;;;9.65;56.22;101993.41;5093502;28;20119;-69
2022/03/05 09:22:39;;;;;;;;;;;9.20;99.90;;;9.84;54.40;101980.53;5076204;28;20044;-77
2022/03/05 09:25:10;;;;;;;249.55;140.77;;;9.70;99.90;;;10.30;54.37;102000.69;5093369;28;20011;-65
2022/03/05 09:27:40;;;;;;;57.10;32.03;;;10.00;99.90;;;9.66;54.73;101979.31;5075643;28;20046;-74
2022/03/05 09:30:10;;;;;;;55.20;32.95;;;9.70;99.90;;;8.99;56.17;101982.50;5093427;28;20048;-75
2022/03/05 09:32:39;;;;;;;55.30;32.83;;;9.00;99.90;;;10.03;54.28;101993.19;5093673;28;20394;-69
2022/03/05 09:35:08;;;;;;;54.45;32.67;;;9.60;99.90;;;10.69;53.78;101992.41;5093327;28;20547;-68
2022/03/05 09:37:37;;;;;;;56.00;33.67;;;10.20;99.90;;;9.78;54.09;101985.72;5093368;28;20072;-70
2022/03/05 09:40:13;;;;;;;55.58;32.65;;;9.80;99.90;;;9.54;54.74;101993.22;5093010;28;20044;-75
2022/03/05 09:42:44;;;;;;;58.15;33.22;;;9.50;99.90;;;10.21;53.63;101997.91;5093237;28;20044;-69
2022/03/05 09:45:14;;;;;;;57.40;34.55;;;9.90;99.90;;;9.60;53.82;101995.97;5093227;28;20490;-69
2022/03/05 09:47:44;;;;;;;53.92;32.47;;;9.60;99.90;;;9.02;55.18;101972.88;5092523;28;20106;-65
2022/03/05 09:50:13;;;;;;;57.00;33.00;;;9.10;99.90;;;9.00;54.31;101995.72;5093416;28;20048;-66
2022/03/05 09:52:42;;;;;;;61.85;35.63;;;8.90;99.90;;;8.98;55.55;101993.94;5093189;28;20044;-73
2022/03/05 09:55:12;;;;;;;59.10;35.70;;;8.80;99.90;;;9.59;56.31;101994.22;5092515;28;20436;-73
2022/03/05 09:57:40;;;;;;;60.38;35.75;;;9.10;99.90;;;10.25;54.80;101982.97;5093252;28;20114;-71
2022/03/05 10:00:10;;;;;;;58.72;35.15;;;9.90;99.90;;;10.19;53.00;101993.44;5075039;28;20146;-71
2022/03/05 10:02:38;;;;;;;56.13;33.78;;;10.00;99.90;;;9.76;52.79;101998.03;5093089;28;20056;-65
2022/03/05 10:05:19;;;;;;;55.92;33.38;;;9.80;99.90;;;9.93;54.53;101996.53;5092870;28;20036;-73
2022/03/05 10:08:12;;;;;;;113.45;66.72;;;9.70;99.90;;;10.96;53.01;101995.41;5092526;28;20036;-66
2022/03/05 10:10:51;;;;;;;60.05;34.03;;;10.40;99.90;;;11.57;51.35;102003.16;5092426;28;20113;-70
2022/03/05 10:13:24;;;;;;;55.47;33.47;;;11.20;99.90;;;12.08;49.94;102000.06;5092606;28;20044;-71
2022/03/05 10:15:56;;;;;;;53.50;31.90;;;11.80;99.90;;;12.26;48.21;102001.97;5074674;28;20109;-69
2022/03/05 10:18:30;;;;;;;56.28;34.33;;;12.10;99.90;;;12.52;47.67;101995.09;5092994;28;20048;-68
2022/03/05 10:20:59;;;;;;;60.15;33.53;;;12.30;99.90;;;12.16;46.97;101973.59;5093144;28;20044;-78